Airfield :
LOGIN :

Register | Disclaimer

   EN    FR    IT 

 










Legend :    VFR   Marginal VFR   IFR   Intensive IFR   Very Intensive IFR
Visi :
Ceiling :
>= 8 km
>= 3000ft
5 to 8 km
1000 to 3000 ft
1500m to 5 km
500 to 1000 ft
800 to 1500m
200 to 500 ft
< 800m
< 200 ft
Symbols :   Thunderstorms  Fog  Heavy snow  Heavy precipitations  Wind > 20 kt
SIGMETs :     Misc.  Thunderstorms  Icing  Turbulence  Mountain Waves  Volcanic Ashes







- Airport Elevation : 247 ft
- IATA code : BLL


EKBI - Billund

CURRENT METAR :
  • 232020Z AUTO 22006KT 9999 NCD 10/06 Q1013

EXPIRED METARs :
  • 231950Z AUTO 24008KT 9999 NCD 11/05 Q1013
  • 231920Z AUTO 22007KT 180V240 9999 FEW090/// BKN140/// 12/06 Q1013
  • 231850Z AUTO 22009KT 190V250 9999 FEW078/// BKN140/// 13/06 Q1013
  • 231820Z AUTO 23011KT 9999 FEW095/// BKN140/// 14/06 Q1013
  • 231750Z AUTO 22009KT 190V250 9999 BKN150/// 15/07 Q1014

TAF TAF EKBI
Valid from the 23 at 18:00 until the 24 at 18:00 UTC


231701Z 2318/2418 23010KT 9999 SCT025
PROB40 2322/2403 4000 BR
BECMG 2406/2408 26012KT
TEMPO 2409/2413 4500 RA BKN010
TEMPO 2413/2418 BKN012
No reported NOTAMs for that airfield.



MET'MAP, your aeronautical weather chart ! - Copyright ORBIFLY December 2007 - Disclaimer

ORBIFLY MET'MAP TEAM :

Programming & Development : Alexandra Zaïnal
Concept & Development : Baudouin d'Aumeries
Co-Development & Prog : Marc-Olivier Méhu
Technical & hardware support : Manuel Goepfert

Contact : metmap@orbifly.com




SOURCES & CREDITS :

   NOAA